sensor_id;sensor_type;location;lat;lon;timestamp;P1;durP1;ratioP1;P2;durP2;ratioP2
66485;SDS011;53303;47.476;8.084;2023-07-13T00:02:23;3.90;;;1.40;;
66485;SDS011;53303;47.476;8.084;2023-07-13T00:04:49;4.05;;;1.40;;
66485;SDS011;53303;47.476;8.084;2023-07-13T00:07:15;3.10;;;1.27;;
66485;SDS011;53303;47.476;8.084;2023-07-13T00:09:45;3.85;;;1.15;;
66485;SDS011;53303;47.476;8.084;2023-07-13T00:15:12;3.08;;;1.30;;
66485;SDS011;53303;47.476;8.084;2023-07-13T00:17:54;4.72;;;1.55;;
66485;SDS011;53303;47.476;8.084;2023-07-13T00:20:24;4.25;;;1.60;;
66485;SDS011;53303;47.476;8.084;2023-07-13T00:22:50;3.25;;;1.50;;
66485;SDS011;53303;47.476;8.084;2023-07-13T00:27:49;5.28;;;1.50;;
66485;SDS011;53303;47.476;8.084;2023-07-13T00:30:17;4.75;;;1.80;;
66485;SDS011;53303;47.476;8.084;2023-07-13T00:32:43;6.07;;;1.75;;
66485;SDS011;53303;47.476;8.084;2023-07-13T00:35:08;3.45;;;1.27;;
66485;SDS011;53303;47.476;8.084;2023-07-13T00:37:38;3.65;;;1.50;;
66485;SDS011;53303;47.476;8.084;2023-07-13T00:40:04;3.67;;;1.30;;
66485;SDS011;53303;47.476;8.084;2023-07-13T00:42:32;3.33;;;1.38;;
66485;SDS011;53303;47.476;8.084;2023-07-13T00:46:13;3.88;;;1.38;;
66485;SDS011;53303;47.476;8.084;2023-07-13T00:47:52;5.65;;;1.60;;
66485;SDS011;53303;47.476;8.084;2023-07-13T00:50:20;4.47;;;1.48;;
66485;SDS011;53303;47.476;8.084;2023-07-13T00:52:48;3.60;;;1.40;;
66485;SDS011;53303;47.476;8.084;2023-07-13T00:55:19;4.53;;;1.40;;
66485;SDS011;53303;47.476;8.084;2023-07-13T00:57:48;7.95;;;1.63;;
66485;SDS011;53303;47.476;8.084;2023-07-13T01:00:14;3.47;;;1.38;;
66485;SDS011;53303;47.476;8.084;2023-07-13T01:02:45;4.65;;;1.40;;
66485;SDS011;53303;47.476;8.084;2023-07-13T01:05:14;3.50;;;1.35;;
66485;SDS011;53303;47.476;8.084;2023-07-13T01:07:43;3.10;;;1.10;;
66485;SDS011;53303;47.476;8.084;2023-07-13T01:10:12;5.47;;;1.20;;
66485;SDS011;53303;47.476;8.084;2023-07-13T01:12:40;5.30;;;1.52;;
66485;SDS011;53303;47.476;8.084;2023-07-13T01:18:11;3.65;;;1.35;;
66485;SDS011;53303;47.476;8.084;2023-07-13T01:23:30;3.85;;;1.30;;
66485;SDS011;53303;47.476;8.084;2023-07-13T01:25:57;3.28;;;1.27;;
66485;SDS011;53303;47.476;8.084;2023-07-13T01:28:24;4.38;;;1.23;;
66485;SDS011;53303;47.476;8.084;2023-07-13T01:30:53;2.83;;;1.27;;
66485;SDS011;53303;47.476;8.084;2023-07-13T01:33:19;4.03;;;1.40;;
66485;SDS011;53303;47.476;8.084;2023-07-13T01:35:45;3.28;;;1.08;;
66485;SDS011;53303;47.476;8.084;2023-07-13T01:38:13;3.95;;;1.20;;
66485;SDS011;53303;47.476;8.084;2023-07-13T01:40:40;2.22;;;1.10;;
66485;SDS011;53303;47.476;8.084;2023-07-13T01:43:06;3.63;;;1.40;;
66485;SDS011;53303;47.476;8.084;2023-07-13T01:45:31;3.17;;;1.35;;
66485;SDS011;53303;47.476;8.084;2023-07-13T01:47:59;4.07;;;1.40;;
66485;SDS011;53303;47.476;8.084;2023-07-13T01:50:25;4.55;;;1.30;;
66485;SDS011;53303;47.476;8.084;2023-07-13T01:52:51;3.17;;;1.48;;
66485;SDS011;53303;47.476;8.084;2023-07-13T01:55:17;8.40;;;1.38;;
66485;SDS011;53303;47.476;8.084;2023-07-13T01:57:45;3.50;;;1.50;;
66485;SDS011;53303;47.476;8.084;2023-07-13T02:00:12;3.78;;;1.40;;
66485;SDS011;53303;47.476;8.084;2023-07-13T02:02:40;5.45;;;1.70;;
66485;SDS011;53303;47.476;8.084;2023-07-13T02:05:06;4.63;;;1.50;;
66485;SDS011;53303;47.476;8.084;2023-07-13T02:07:34;3.45;;;1.60;;
66485;SDS011;53303;47.476;8.084;2023-07-13T02:10:00;4.70;;;1.60;;
66485;SDS011;53303;47.476;8.084;2023-07-13T02:12:27;4.72;;;1.63;;
66485;SDS011;53303;47.476;8.084;2023-07-13T02:14:55;5.07;;;1.80;;
66485;SDS011;53303;47.476;8.084;2023-07-13T02:17:25;4.63;;;1.70;;
66485;SDS011;53303;47.476;8.084;2023-07-13T02:19:51;3.55;;;1.30;;
66485;SDS011;53303;47.476;8.084;2023-07-13T02:22:22;5.38;;;1.65;;
66485;SDS011;53303;47.476;8.084;2023-07-13T02:24:48;5.10;;;1.70;;
66485;SDS011;53303;47.476;8.084;2023-07-13T02:27:14;5.32;;;1.40;;
66485;SDS011;53303;47.476;8.084;2023-07-13T02:29:42;5.47;;;1.42;;
66485;SDS011;53303;47.476;8.084;2023-07-13T02:32:07;4.80;;;1.90;;
66485;SDS011;53303;47.476;8.084;2023-07-13T02:34:33;3.65;;;1.50;;
66485;SDS011;53303;47.476;8.084;2023-07-13T02:37:02;5.88;;;1.63;;
66485;SDS011;53303;47.476;8.084;2023-07-13T02:39:30;4.50;;;1.65;;
66485;SDS011;53303;47.476;8.084;2023-07-13T02:41:58;3.67;;;1.60;;
66485;SDS011;53303;47.476;8.084;2023-07-13T02:44:26;4.35;;;1.58;;
66485;SDS011;53303;47.476;8.084;2023-07-13T02:46:54;6.43;;;1.90;;
66485;SDS011;53303;47.476;8.084;2023-07-13T02:49:19;3.88;;;1.25;;
66485;SDS011;53303;47.476;8.084;2023-07-13T02:51:44;6.72;;;1.75;;
66485;SDS011;53303;47.476;8.084;2023-07-13T02:54:12;5.05;;;1.50;;
66485;SDS011;53303;47.476;8.084;2023-07-13T02:56:41;5.55;;;1.50;;
66485;SDS011;53303;47.476;8.084;2023-07-13T02:59:09;5.43;;;1.80;;
66485;SDS011;53303;47.476;8.084;2023-07-13T03:01:35;5.65;;;1.90;;
66485;SDS011;53303;47.476;8.084;2023-07-13T03:04:01;5.00;;;1.65;;
66485;SDS011;53303;47.476;8.084;2023-07-13T03:06:26;4.68;;;1.50;;
66485;SDS011;53303;47.476;8.084;2023-07-13T03:08:55;4.72;;;1.70;;
66485;SDS011;53303;47.476;8.084;2023-07-13T03:11:21;4.38;;;1.75;;
66485;SDS011;53303;47.476;8.084;2023-07-13T03:13:46;4.18;;;1.65;;
66485;SDS011;53303;47.476;8.084;2023-07-13T03:16:17;5.25;;;1.90;;
66485;SDS011;53303;47.476;8.084;2023-07-13T03:18:43;4.13;;;1.30;;
66485;SDS011;53303;47.476;8.084;2023-07-13T03:21:08;6.70;;;1.80;;
66485;SDS011;53303;47.476;8.084;2023-07-13T03:23:36;4.03;;;1.40;;
66485;SDS011;53303;47.476;8.084;2023-07-13T03:26:08;3.83;;;1.50;;
66485;SDS011;53303;47.476;8.084;2023-07-13T03:28:35;4.30;;;1.60;;
66485;SDS011;53303;47.476;8.084;2023-07-13T03:31:05;4.47;;;1.70;;
66485;SDS011;53303;47.476;8.084;2023-07-13T03:33:32;5.30;;;1.60;;
66485;SDS011;53303;47.476;8.084;2023-07-13T03:35:58;4.85;;;1.60;;
66485;SDS011;53303;47.476;8.084;2023-07-13T03:38:24;6.00;;;1.95;;
66485;SDS011;53303;47.476;8.084;2023-07-13T03:40:53;5.50;;;1.80;;
66485;SDS011;53303;47.476;8.084;2023-07-13T03:43:20;4.55;;;1.40;;
66485;SDS011;53303;47.476;8.084;2023-07-13T03:45:48;5.28;;;2.00;;
66485;SDS011;53303;47.476;8.084;2023-07-13T03:48:14;4.38;;;1.70;;
66485;SDS011;53303;47.476;8.084;2023-07-13T03:50:39;4.82;;;1.55;;
66485;SDS011;53303;47.476;8.084;2023-07-13T03:53:05;5.10;;;1.33;;
66485;SDS011;53303;47.476;8.084;2023-07-13T03:55:32;4.45;;;1.80;;
66485;SDS011;53303;47.476;8.084;2023-07-13T03:58:22;8.00;;;1.85;;
66485;SDS011;53303;47.476;8.084;2023-07-13T04:00:49;5.80;;;2.20;;
66485;SDS011;53303;47.476;8.084;2023-07-13T04:03:15;5.65;;;1.58;;
66485;SDS011;53303;47.476;8.084;2023-07-13T04:05:43;8.43;;;1.88;;
66485;SDS011;53303;47.476;8.084;2023-07-13T04:08:11;5.72;;;1.50;;
66485;SDS011;53303;47.476;8.084;2023-07-13T04:10:36;2.75;;;1.33;;
66485;SDS011;53303;47.476;8.084;2023-07-13T04:13:01;2.70;;;1.15;;
66485;SDS011;53303;47.476;8.084;2023-07-13T04:15:30;3.22;;;1.20;;
66485;SDS011;53303;47.476;8.084;2023-07-13T04:17:56;2.78;;;1.10;;
66485;SDS011;53303;47.476;8.084;2023-07-13T04:20:25;3.80;;;1.48;;
66485;SDS011;53303;47.476;8.084;2023-07-13T04:22:55;2.70;;;1.02;;
66485;SDS011;53303;47.476;8.084;2023-07-13T04:25:21;3.05;;;1.27;;
66485;SDS011;53303;47.476;8.084;2023-07-13T04:27:46;2.85;;;1.38;;
66485;SDS011;53303;47.476;8.084;2023-07-13T04:30:14;3.38;;;1.15;;
66485;SDS011;53303;47.476;8.084;2023-07-13T04:32:39;4.03;;;1.33;;
66485;SDS011;53303;47.476;8.084;2023-07-13T04:35:07;2.63;;;1.15;;
66485;SDS011;53303;47.476;8.084;2023-07-13T04:37:36;2.95;;;1.20;;
66485;SDS011;53303;47.476;8.084;2023-07-13T04:40:03;3.35;;;1.20;;
66485;SDS011;53303;47.476;8.084;2023-07-13T04:42:36;4.32;;;1.48;;
66485;SDS011;53303;47.476;8.084;2023-07-13T04:45:04;4.50;;;1.42;;
66485;SDS011;53303;47.476;8.084;2023-07-13T04:47:31;4.80;;;1.80;;
66485;SDS011;53303;47.476;8.084;2023-07-13T04:50:01;2.80;;;1.30;;
66485;SDS011;53303;47.476;8.084;2023-07-13T04:52:27;3.38;;;1.30;;
66485;SDS011;53303;47.476;8.084;2023-07-13T04:54:54;3.42;;;1.10;;
66485;SDS011;53303;47.476;8.084;2023-07-13T04:57:22;2.67;;;1.17;;
66485;SDS011;53303;47.476;8.084;2023-07-13T04:59:50;3.20;;;1.10;;
66485;SDS011;53303;47.476;8.084;2023-07-13T05:02:15;3.33;;;1.33;;
66485;SDS011;53303;47.476;8.084;2023-07-13T05:04:46;2.45;;;1.33;;
66485;SDS011;53303;47.476;8.084;2023-07-13T05:07:12;2.08;;;1.02;;
66485;SDS011;53303;47.476;8.084;2023-07-13T05:09:38;3.58;;;1.30;;
66485;SDS011;53303;47.476;8.084;2023-07-13T05:12:05;14.02;;;8.15;;
66485;SDS011;53303;47.476;8.084;2023-07-13T05:14:33;7.57;;;3.28;;
66485;SDS011;53303;47.476;8.084;2023-07-13T05:16:59;4.97;;;2.00;;
66485;SDS011;53303;47.476;8.084;2023-07-13T05:19:29;4.50;;;1.50;;
66485;SDS011;53303;47.476;8.084;2023-07-13T05:21:54;3.75;;;1.58;;
66485;SDS011;53303;47.476;8.084;2023-07-13T05:24:20;2.92;;;1.20;;
66485;SDS011;53303;47.476;8.084;2023-07-13T05:26:50;3.88;;;1.40;;
66485;SDS011;53303;47.476;8.084;2023-07-13T05:29:18;3.80;;;1.15;;
66485;SDS011;53303;47.476;8.084;2023-07-13T05:31:43;4.13;;;1.50;;
66485;SDS011;53303;47.476;8.084;2023-07-13T05:34:08;3.55;;;1.10;;
66485;SDS011;53303;47.476;8.084;2023-07-13T05:36:36;3.08;;;1.45;;
66485;SDS011;53303;47.476;8.084;2023-07-13T05:39:02;3.65;;;1.20;;
66485;SDS011;53303;47.476;8.084;2023-07-13T05:41:28;2.75;;;1.02;;
66485;SDS011;53303;47.476;8.084;2023-07-13T05:43:56;8.63;;;3.33;;
66485;SDS011;53303;47.476;8.084;2023-07-13T05:46:24;4.72;;;1.98;;
66485;SDS011;53303;47.476;8.084;2023-07-13T05:48:50;4.47;;;1.80;;
66485;SDS011;53303;47.476;8.084;2023-07-13T05:51:17;2.78;;;1.30;;
66485;SDS011;53303;47.476;8.084;2023-07-13T05:53:45;5.88;;;1.50;;
66485;SDS011;53303;47.476;8.084;2023-07-13T05:56:13;4.80;;;1.42;;
66485;SDS011;53303;47.476;8.084;2023-07-13T05:58:42;3.95;;;1.40;;
66485;SDS011;53303;47.476;8.084;2023-07-13T06:01:12;2.40;;;1.08;;
66485;SDS011;53303;47.476;8.084;2023-07-13T06:03:41;3.40;;;1.20;;
66485;SDS011;53303;47.476;8.084;2023-07-13T06:06:07;3.65;;;1.20;;
66485;SDS011;53303;47.476;8.084;2023-07-13T06:08:34;4.07;;;1.55;;
66485;SDS011;53303;47.476;8.084;2023-07-13T06:11:06;3.13;;;1.40;;
66485;SDS011;53303;47.476;8.084;2023-07-13T06:13:50;5.15;;;1.50;;
66485;SDS011;53303;47.476;8.084;2023-07-13T06:16:17;5.13;;;1.98;;
66485;SDS011;53303;47.476;8.084;2023-07-13T06:18:42;4.18;;;1.48;;
66485;SDS011;53303;47.476;8.084;2023-07-13T06:21:15;3.08;;;1.20;;
66485;SDS011;53303;47.476;8.084;2023-07-13T06:23:44;8.43;;;1.90;;
66485;SDS011;53303;47.476;8.084;2023-07-13T06:26:16;5.95;;;1.80;;
66485;SDS011;53303;47.476;8.084;2023-07-13T06:28:42;3.67;;;1.50;;
66485;SDS011;53303;47.476;8.084;2023-07-13T06:31:13;3.28;;;1.10;;
66485;SDS011;53303;47.476;8.084;2023-07-13T06:33:39;4.65;;;1.30;;
66485;SDS011;53303;47.476;8.084;2023-07-13T06:36:05;4.15;;;1.30;;
66485;SDS011;53303;47.476;8.084;2023-07-13T06:38:33;3.55;;;1.30;;
66485;SDS011;53303;47.476;8.084;2023-07-13T06:41:00;5.35;;;1.40;;
66485;SDS011;53303;47.476;8.084;2023-07-13T06:43:31;5.07;;;1.52;;
66485;SDS011;53303;47.476;8.084;2023-07-13T06:45:57;3.40;;;1.38;;
66485;SDS011;53303;47.476;8.084;2023-07-13T06:48:26;12.82;;;5.93;;
66485;SDS011;53303;47.476;8.084;2023-07-13T06:50:54;11.18;;;5.15;;
66485;SDS011;53303;47.476;8.084;2023-07-13T06:53:22;7.65;;;2.65;;
66485;SDS011;53303;47.476;8.084;2023-07-13T06:55:48;7.70;;;2.08;;
66485;SDS011;53303;47.476;8.084;2023-07-13T06:58:15;5.85;;;1.98;;
66485;SDS011;53303;47.476;8.084;2023-07-13T07:00:44;4.32;;;1.50;;
66485;SDS011;53303;47.476;8.084;2023-07-13T07:03:15;4.95;;;1.58;;
66485;SDS011;53303;47.476;8.084;2023-07-13T07:05:42;3.35;;;1.30;;
66485;SDS011;53303;47.476;8.084;2023-07-13T07:08:10;3.08;;;1.20;;
66485;SDS011;53303;47.476;8.084;2023-07-13T07:10:36;4.47;;;1.20;;
66485;SDS011;53303;47.476;8.084;2023-07-13T07:13:06;3.60;;;1.40;;
66485;SDS011;53303;47.476;8.084;2023-07-13T07:15:31;3.28;;;1.17;;
66485;SDS011;53303;47.476;8.084;2023-07-13T07:17:59;2.88;;;1.10;;
66485;SDS011;53303;47.476;8.084;2023-07-13T07:20:24;3.88;;;1.40;;
66485;SDS011;53303;47.476;8.084;2023-07-13T07:22:50;3.33;;;1.27;;
66485;SDS011;53303;47.476;8.084;2023-07-13T07:25:15;2.35;;;1.00;;
66485;SDS011;53303;47.476;8.084;2023-07-13T07:27:43;3.25;;;1.00;;
66485;SDS011;53303;47.476;8.084;2023-07-13T07:30:09;4.18;;;1.30;;
66485;SDS011;53303;47.476;8.084;2023-07-13T07:32:37;5.95;;;1.40;;
66485;SDS011;53303;47.476;8.084;2023-07-13T07:35:05;3.45;;;1.20;;
66485;SDS011;53303;47.476;8.084;2023-07-13T07:37:31;3.42;;;1.40;;
66485;SDS011;53303;47.476;8.084;2023-07-13T07:39:56;10.40;;;1.52;;
66485;SDS011;53303;47.476;8.084;2023-07-13T07:42:21;2.80;;;1.15;;
66485;SDS011;53303;47.476;8.084;2023-07-13T07:44:47;2.20;;;1.00;;
66485;SDS011;53303;47.476;8.084;2023-07-13T07:47:15;6.97;;;2.17;;
66485;SDS011;53303;47.476;8.084;2023-07-13T07:49:43;16.13;;;7.88;;
66485;SDS011;53303;47.476;8.084;2023-07-13T07:52:08;7.65;;;2.92;;
66485;SDS011;53303;47.476;8.084;2023-07-13T07:54:34;6.43;;;2.50;;
66485;SDS011;53303;47.476;8.084;2023-07-13T07:57:01;4.03;;;2.00;;
66485;SDS011;53303;47.476;8.084;2023-07-13T07:59:27;5.50;;;1.30;;
66485;SDS011;53303;47.476;8.084;2023-07-13T08:01:52;4.70;;;1.65;;
66485;SDS011;53303;47.476;8.084;2023-07-13T08:04:20;4.68;;;1.45;;
66485;SDS011;53303;47.476;8.084;2023-07-13T08:06:45;2.92;;;1.10;;
66485;SDS011;53303;47.476;8.084;2023-07-13T08:09:15;4.38;;;1.60;;
66485;SDS011;53303;47.476;8.084;2023-07-13T08:11:41;2.75;;;1.30;;
66485;SDS011;53303;47.476;8.084;2023-07-13T08:14:09;4.55;;;1.48;;
66485;SDS011;53303;47.476;8.084;2023-07-13T08:16:37;9.23;;;1.50;;
66485;SDS011;53303;47.476;8.084;2023-07-13T08:19:05;10.20;;;1.50;;
66485;SDS011;53303;47.476;8.084;2023-07-13T08:21:31;3.40;;;1.33;;
66485;SDS011;53303;47.476;8.084;2023-07-13T08:23:59;5.28;;;1.50;;
66485;SDS011;53303;47.476;8.084;2023-07-13T08:26:26;3.13;;;1.27;;
66485;SDS011;53303;47.476;8.084;2023-07-13T08:28:56;2.55;;;1.40;;
66485;SDS011;53303;47.476;8.084;2023-07-13T08:31:24;11.07;;;1.85;;
66485;SDS011;53303;47.476;8.084;2023-07-13T08:33:54;7.47;;;3.30;;
66485;SDS011;53303;47.476;8.084;2023-07-13T08:36:19;6.25;;;2.40;;
66485;SDS011;53303;47.476;8.084;2023-07-13T08:38:45;5.38;;;1.90;;
66485;SDS011;53303;47.476;8.084;2023-07-13T08:41:14;6.03;;;2.13;;
66485;SDS011;53303;47.476;8.084;2023-07-13T08:43:41;7.78;;;2.70;;
66485;SDS011;53303;47.476;8.084;2023-07-13T08:51:51;11.52;;;2.22;;
66485;SDS011;53303;47.476;8.084;2023-07-13T08:57:21;6.30;;;2.17;;
66485;SDS011;53303;47.476;8.084;2023-07-13T08:59:55;9.52;;;2.60;;
66485;SDS011;53303;47.476;8.084;2023-07-13T09:05:04;6.47;;;2.40;;
66485;SDS011;53303;47.476;8.084;2023-07-13T09:10:41;6.82;;;2.35;;
66485;SDS011;53303;47.476;8.084;2023-07-13T09:16:21;4.88;;;2.10;;
66485;SDS011;53303;47.476;8.084;2023-07-13T09:18:48;5.65;;;2.22;;
66485;SDS011;53303;47.476;8.084;2023-07-13T09:23:41;6.65;;;2.50;;
66485;SDS011;53303;47.476;8.084;2023-07-13T09:26:21;5.40;;;1.98;;
66485;SDS011;53303;47.476;8.084;2023-07-13T09:28:49;6.00;;;2.40;;
66485;SDS011;53303;47.476;8.084;2023-07-13T09:31:32;6.30;;;2.05;;
66485;SDS011;53303;47.476;8.084;2023-07-13T09:34:02;5.80;;;2.05;;
66485;SDS011;53303;47.476;8.084;2023-07-13T09:36:28;6.82;;;2.63;;
66485;SDS011;53303;47.476;8.084;2023-07-13T09:39:05;6.47;;;2.08;;
66485;SDS011;53303;47.476;8.084;2023-07-13T09:46:39;6.32;;;2.08;;
66485;SDS011;53303;47.476;8.084;2023-07-13T09:49:09;5.90;;;2.33;;
66485;SDS011;53303;47.476;8.084;2023-07-13T09:51:38;5.47;;;2.45;;
66485;SDS011;53303;47.476;8.084;2023-07-13T09:54:05;4.88;;;2.15;;
66485;SDS011;53303;47.476;8.084;2023-07-13T09:56:45;8.00;;;2.00;;
66485;SDS011;53303;47.476;8.084;2023-07-13T09:59:19;5.88;;;2.30;;
66485;SDS011;53303;47.476;8.084;2023-07-13T10:01:46;5.85;;;2.33;;
66485;SDS011;53303;47.476;8.084;2023-07-13T10:04:16;5.95;;;2.50;;
66485;SDS011;53303;47.476;8.084;2023-07-13T10:06:45;7.20;;;2.55;;
66485;SDS011;53303;47.476;8.084;2023-07-13T10:09:17;7.25;;;2.13;;
66485;SDS011;53303;47.476;8.084;2023-07-13T10:11:47;5.03;;;1.67;;
66485;SDS011;53303;47.476;8.084;2023-07-13T10:14:17;8.38;;;2.35;;
66485;SDS011;53303;47.476;8.084;2023-07-13T10:16:48;5.13;;;2.22;;
66485;SDS011;53303;47.476;8.084;2023-07-13T10:19:21;5.47;;;2.10;;
66485;SDS011;53303;47.476;8.084;2023-07-13T10:21:55;6.60;;;2.10;;
66485;SDS011;53303;47.476;8.084;2023-07-13T10:24:29;6.72;;;2.40;;
66485;SDS011;53303;47.476;8.084;2023-07-13T10:29:39;5.65;;;2.15;;
66485;SDS011;53303;47.476;8.084;2023-07-13T10:32:23;5.60;;;2.20;;
66485;SDS011;53303;47.476;8.084;2023-07-13T10:34:49;8.25;;;2.08;;
66485;SDS011;53303;47.476;8.084;2023-07-13T10:37:22;9.13;;;2.13;;
66485;SDS011;53303;47.476;8.084;2023-07-13T10:39:52;8.68;;;2.17;;
66485;SDS011;53303;47.476;8.084;2023-07-13T10:42:35;6.57;;;2.13;;
66485;SDS011;53303;47.476;8.084;2023-07-13T10:45:23;9.18;;;2.40;;
66485;SDS011;53303;47.476;8.084;2023-07-13T10:47:52;7.07;;;2.00;;
66485;SDS011;53303;47.476;8.084;2023-07-13T10:50:25;9.88;;;2.22;;
66485;SDS011;53303;47.476;8.084;2023-07-13T10:52:56;6.82;;;2.47;;
66485;SDS011;53303;47.476;8.084;2023-07-13T10:58:03;5.75;;;2.22;;
66485;SDS011;53303;47.476;8.084;2023-07-13T11:00:47;7.93;;;2.40;;
66485;SDS011;53303;47.476;8.084;2023-07-13T11:03:24;5.82;;;2.30;;
66485;SDS011;53303;47.476;8.084;2023-07-13T11:06:04;6.68;;;2.10;;
66485;SDS011;53303;47.476;8.084;2023-07-13T11:08:34;6.10;;;2.00;;
66485;SDS011;53303;47.476;8.084;2023-07-13T11:11:05;5.03;;;2.13;;
66485;SDS011;53303;47.476;8.084;2023-07-13T11:22:01;6.43;;;2.60;;
66485;SDS011;53303;47.476;8.084;2023-07-13T11:24:28;6.28;;;2.42;;
66485;SDS011;53303;47.476;8.084;2023-07-13T11:26:57;4.90;;;1.83;;
66485;SDS011;53303;47.476;8.084;2023-07-13T11:31:56;5.93;;;2.50;;
66485;SDS011;53303;47.476;8.084;2023-07-13T11:34:28;5.80;;;2.40;;
66485;SDS011;53303;47.476;8.084;2023-07-13T11:36:56;6.05;;;2.10;;
66485;SDS011;53303;47.476;8.084;2023-07-13T11:42:00;4.78;;;2.45;;
66485;SDS011;53303;47.476;8.084;2023-07-13T11:44:32;4.55;;;2.10;;
66485;SDS011;53303;47.476;8.084;2023-07-13T11:47:08;5.65;;;1.90;;
66485;SDS011;53303;47.476;8.084;2023-07-13T11:49:43;5.30;;;2.30;;
66485;SDS011;53303;47.476;8.084;2023-07-13T11:52:16;6.32;;;2.60;;
66485;SDS011;53303;47.476;8.084;2023-07-13T11:54:56;4.85;;;2.03;;
66485;SDS011;53303;47.476;8.084;2023-07-13T12:00:01;6.55;;;2.40;;
66485;SDS011;53303;47.476;8.084;2023-07-13T12:02:36;7.45;;;2.22;;
66485;SDS011;53303;47.476;8.084;2023-07-13T12:05:09;5.75;;;1.90;;
66485;SDS011;53303;47.476;8.084;2023-07-13T12:07:37;7.80;;;2.35;;
66485;SDS011;53303;47.476;8.084;2023-07-13T12:12:56;7.25;;;2.53;;
66485;SDS011;53303;47.476;8.084;2023-07-13T12:18:15;6.85;;;2.45;;
66485;SDS011;53303;47.476;8.084;2023-07-13T12:20:44;6.30;;;2.00;;
66485;SDS011;53303;47.476;8.084;2023-07-13T12:25:56;5.35;;;2.50;;
66485;SDS011;53303;47.476;8.084;2023-07-13T12:28:31;6.32;;;2.45;;
66485;SDS011;53303;47.476;8.084;2023-07-13T12:31:03;7.28;;;2.20;;
66485;SDS011;53303;47.476;8.084;2023-07-13T12:33:34;9.25;;;2.80;;
66485;SDS011;53303;47.476;8.084;2023-07-13T12:36:03;9.60;;;2.17;;
66485;SDS011;53303;47.476;8.084;2023-07-13T12:38:34;6.65;;;2.45;;
66485;SDS011;53303;47.476;8.084;2023-07-13T12:41:01;6.38;;;2.40;;
66485;SDS011;53303;47.476;8.084;2023-07-13T12:43:38;6.32;;;2.50;;
66485;SDS011;53303;47.476;8.084;2023-07-13T12:46:05;5.43;;;2.00;;
66485;SDS011;53303;47.476;8.084;2023-07-13T12:48:40;8.93;;;2.55;;
66485;SDS011;53303;47.476;8.084;2023-07-13T12:51:11;6.65;;;2.20;;
66485;SDS011;53303;47.476;8.084;2023-07-13T12:53:47;8.15;;;2.33;;
66485;SDS011;53303;47.476;8.084;2023-07-13T12:56:20;5.40;;;2.30;;
66485;SDS011;53303;47.476;8.084;2023-07-13T12:58:48;6.10;;;2.45;;
66485;SDS011;53303;47.476;8.084;2023-07-13T13:01:19;6.38;;;2.45;;
66485;SDS011;53303;47.476;8.084;2023-07-13T13:03:48;6.07;;;2.65;;
66485;SDS011;53303;47.476;8.084;2023-07-13T13:08:48;6.45;;;2.00;;
66485;SDS011;53303;47.476;8.084;2023-07-13T13:11:20;6.88;;;2.53;;
66485;SDS011;53303;47.476;8.084;2023-07-13T13:13:47;12.68;;;2.85;;
66485;SDS011;53303;47.476;8.084;2023-07-13T13:16:21;6.60;;;2.53;;
66485;SDS011;53303;47.476;8.084;2023-07-13T13:19:01;5.78;;;2.30;;
66485;SDS011;53303;47.476;8.084;2023-07-13T13:21:49;5.45;;;1.92;;
66485;SDS011;53303;47.476;8.084;2023-07-13T13:24:18;6.03;;;2.45;;
66485;SDS011;53303;47.476;8.084;2023-07-13T13:26:47;5.57;;;2.50;;
66485;SDS011;53303;47.476;8.084;2023-07-13T13:29:18;5.43;;;2.17;;
66485;SDS011;53303;47.476;8.084;2023-07-13T13:31:45;5.70;;;2.20;;
66485;SDS011;53303;47.476;8.084;2023-07-13T13:34:11;6.57;;;2.55;;
66485;SDS011;53303;47.476;8.084;2023-07-13T13:36:39;4.55;;;2.25;;
66485;SDS011;53303;47.476;8.084;2023-07-13T13:39:19;7.03;;;2.42;;
66485;SDS011;53303;47.476;8.084;2023-07-13T13:41:50;6.70;;;2.35;;
66485;SDS011;53303;47.476;8.084;2023-07-13T13:44:20;5.65;;;2.00;;
66485;SDS011;53303;47.476;8.084;2023-07-13T13:46:58;8.35;;;2.78;;
66485;SDS011;53303;47.476;8.084;2023-07-13T13:49:26;5.97;;;2.22;;
66485;SDS011;53303;47.476;8.084;2023-07-13T13:51:55;5.82;;;2.33;;
66485;SDS011;53303;47.476;8.084;2023-07-13T13:54:24;7.13;;;2.30;;
66485;SDS011;53303;47.476;8.084;2023-07-13T13:56:51;6.35;;;2.53;;
66485;SDS011;53303;47.476;8.084;2023-07-13T13:59:17;5.50;;;2.40;;
66485;SDS011;53303;47.476;8.084;2023-07-13T14:01:52;5.47;;;2.17;;
66485;SDS011;53303;47.476;8.084;2023-07-13T14:04:19;4.65;;;2.20;;
66485;SDS011;53303;47.476;8.084;2023-07-13T14:06:47;5.43;;;2.25;;
66485;SDS011;53303;47.476;8.084;2023-07-13T14:11:42;6.40;;;2.60;;
66485;SDS011;53303;47.476;8.084;2023-07-13T14:14:20;5.22;;;2.10;;
66485;SDS011;53303;47.476;8.084;2023-07-13T14:16:54;6.05;;;2.45;;
66485;SDS011;53303;47.476;8.084;2023-07-13T14:19:23;6.38;;;2.47;;
66485;SDS011;53303;47.476;8.084;2023-07-13T14:21:49;6.80;;;2.30;;
66485;SDS011;53303;47.476;8.084;2023-07-13T14:24:17;8.07;;;2.70;;
66485;SDS011;53303;47.476;8.084;2023-07-13T14:26:45;6.75;;;2.38;;
66485;SDS011;53303;47.476;8.084;2023-07-13T14:29:15;6.72;;;2.47;;
66485;SDS011;53303;47.476;8.084;2023-07-13T14:31:43;6.82;;;2.17;;
66485;SDS011;53303;47.476;8.084;2023-07-13T14:34:11;6.28;;;2.47;;
66485;SDS011;53303;47.476;8.084;2023-07-13T14:36:40;5.95;;;2.97;;
66485;SDS011;53303;47.476;8.084;2023-07-13T14:39:13;6.22;;;2.30;;
66485;SDS011;53303;47.476;8.084;2023-07-13T14:41:41;5.45;;;2.47;;
66485;SDS011;53303;47.476;8.084;2023-07-13T14:44:16;5.90;;;2.42;;
66485;SDS011;53303;47.476;8.084;2023-07-13T14:46:48;5.60;;;2.45;;
66485;SDS011;53303;47.476;8.084;2023-07-13T14:52:12;5.38;;;2.58;;
66485;SDS011;53303;47.476;8.084;2023-07-13T14:54:39;5.95;;;2.33;;
66485;SDS011;53303;47.476;8.084;2023-07-13T14:57:11;6.18;;;2.90;;
66485;SDS011;53303;47.476;8.084;2023-07-13T14:59:38;7.43;;;2.30;;
66485;SDS011;53303;47.476;8.084;2023-07-13T15:02:11;7.30;;;2.47;;
66485;SDS011;53303;47.476;8.084;2023-07-13T15:04:53;5.55;;;2.22;;
66485;SDS011;53303;47.476;8.084;2023-07-13T15:07:21;7.78;;;3.00;;
66485;SDS011;53303;47.476;8.084;2023-07-13T15:09:48;5.45;;;2.20;;
66485;SDS011;53303;47.476;8.084;2023-07-13T15:12:16;6.60;;;2.30;;
66485;SDS011;53303;47.476;8.084;2023-07-13T15:14:45;5.90;;;2.50;;
66485;SDS011;53303;47.476;8.084;2023-07-13T15:17:24;8.10;;;2.72;;
66485;SDS011;53303;47.476;8.084;2023-07-13T15:19:53;6.10;;;1.98;;
66485;SDS011;53303;47.476;8.084;2023-07-13T15:22:18;6.25;;;2.70;;
66485;SDS011;53303;47.476;8.084;2023-07-13T15:24:44;6.20;;;2.55;;
66485;SDS011;53303;47.476;8.084;2023-07-13T15:27:12;6.25;;;2.30;;
66485;SDS011;53303;47.476;8.084;2023-07-13T15:29:37;6.32;;;2.53;;
66485;SDS011;53303;47.476;8.084;2023-07-13T15:32:11;7.18;;;2.80;;
66485;SDS011;53303;47.476;8.084;2023-07-13T15:34:38;5.70;;;2.40;;
66485;SDS011;53303;47.476;8.084;2023-07-13T15:37:07;6.78;;;2.60;;
66485;SDS011;53303;47.476;8.084;2023-07-13T15:39:38;6.40;;;2.63;;
66485;SDS011;53303;47.476;8.084;2023-07-13T15:42:03;6.10;;;2.38;;
66485;SDS011;53303;47.476;8.084;2023-07-13T15:44:29;6.10;;;2.65;;
66485;SDS011;53303;47.476;8.084;2023-07-13T15:46:56;5.40;;;2.35;;
66485;SDS011;53303;47.476;8.084;2023-07-13T15:49:22;6.50;;;3.00;;
66485;SDS011;53303;47.476;8.084;2023-07-13T15:51:47;6.70;;;2.28;;
66485;SDS011;53303;47.476;8.084;2023-07-13T15:54:14;6.00;;;2.40;;
66485;SDS011;53303;47.476;8.084;2023-07-13T15:56:41;5.22;;;2.17;;
66485;SDS011;53303;47.476;8.084;2023-07-13T15:59:12;6.15;;;2.70;;
66485;SDS011;53303;47.476;8.084;2023-07-13T16:01:39;6.45;;;2.33;;
66485;SDS011;53303;47.476;8.084;2023-07-13T16:04:07;12.57;;;3.63;;
66485;SDS011;53303;47.476;8.084;2023-07-13T16:06:37;37.78;;;5.82;;
66485;SDS011;53303;47.476;8.084;2023-07-13T16:09:05;47.10;;;6.45;;
66485;SDS011;53303;47.476;8.084;2023-07-13T16:11:33;26.23;;;4.60;;
66485;SDS011;53303;47.476;8.084;2023-07-13T16:14:03;44.47;;;7.25;;